Time;durP1;ratioP1;P1;durP2;ratioP2;P2;SDS_P1;SDS_P2;PMS_P1;PMS_P2;Temp;Humidity;BMP_temperature;BMP_pressure;BME280_temperature;BME280_humidity;BME280_pressure;Samples;Min_cycle;Max_cycle;Signal;HPM_P1;HPM_P2
2022/12/05 00:01:58;;;;;;;0.30;0.30;;;;;;;;;;5031539;28;20653;-74
2022/12/05 00:04:26;;;;;;;0.47;0.47;;;;;;;;;;5039774;28;20630;-74
2022/12/05 00:06:55;;;;;;;0.30;0.30;;;;;;;;;;5034421;28;20630;-75
2022/12/05 00:09:22;;;;;;;0.40;0.40;;;;;;;;;;5033596;28;20199;-73
2022/12/05 00:11:49;;;;;;;0.40;0.40;;;;;;;;;;5035948;28;20652;-73
2022/12/05 00:14:16;;;;;;;0.20;0.20;;;;;;;;;;5033189;28;20625;-76
2022/12/05 00:16:44;;;;;;;0.40;0.40;;;;;;;;;;5033113;28;20246;-74
2022/12/05 00:19:12;;;;;;;0.30;0.30;;;;;;;;;;5032009;28;20692;-76
2022/12/05 00:21:40;;;;;;;0.30;0.30;;;;;;;;;;5030460;28;20653;-74
2022/12/05 00:24:12;;;;;;;0.30;0.30;;;;;;;;;;5039055;28;20690;-73
2022/12/05 00:26:40;;;;;;;0.30;0.30;;;;;;;;;;5034191;28;20627;-74
2022/12/05 00:29:07;;;;;;;0.40;0.40;;;;;;;;;;5041592;28;20630;-75
2022/12/05 00:31:36;;;;;;;0.38;0.38;;;;;;;;;;5035122;28;20242;-74
2022/12/05 00:34:04;;;;;;;0.23;0.23;;;;;;;;;;5033763;28;20206;-74
2022/12/05 00:36:32;;;;;;;0.40;0.40;;;;;;;;;;5033711;28;20629;-74
2022/12/05 00:39:00;;;;;;;0.40;0.40;;;;;;;;;;5050132;28;21035;-73
2022/12/05 00:41:29;;;;;;;0.40;0.40;;;;;;;;;;5039884;28;20677;-74
2022/12/05 00:43:59;;;;;;;0.40;0.40;;;;;;;;;;5035301;28;20641;-74
2022/12/05 00:46:27;;;;;;;0.30;0.30;;;;;;;;;;5035320;28;20624;-74
2022/12/05 00:48:55;;;;;;;0.30;0.30;;;;;;;;;;5030793;28;20653;-74
2022/12/05 00:51:23;;;;;;;0.30;0.30;;;;;;;;;;5032793;28;20641;-73
2022/12/05 00:53:51;;;;;;;0.30;0.30;;;;;;;;;;5032953;28;20629;-74
2022/12/05 00:56:19;;;;;;;0.32;0.32;;;;;;;;;;5036131;28;20640;-73
2022/12/05 00:58:49;;;;;;;0.30;0.30;;;;;;;;;;5039860;28;20199;-74
2022/12/05 01:01:17;;;;;;;0.20;0.20;;;;;;;;;;5040377;28;20675;-74
2022/12/05 01:03:45;;;;;;;0.20;0.20;;;;;;;;;;5037696;28;20211;-74
2022/12/05 01:06:13;;;;;;;0.20;0.20;;;;;;;;;;5034476;28;20329;-74
2022/12/05 01:08:40;;;;;;;0.30;0.30;;;;;;;;;;5032916;28;20641;-74
2022/12/05 01:11:08;;;;;;;0.20;0.20;;;;;;;;;;5034286;28;20620;-73
2022/12/05 01:13:36;;;;;;;0.20;0.20;;;;;;;;;;5030757;28;20618;-76
2022/12/05 01:16:04;;;;;;;0.30;0.30;;;;;;;;;;5051486;28;20633;-74
2022/12/05 01:18:32;;;;;;;0.30;0.30;;;;;;;;;;5032779;28;20637;-74
2022/12/05 01:20:59;;;;;;;0.20;0.20;;;;;;;;;;5038915;28;20661;-74
2022/12/05 01:23:27;;;;;;;0.30;0.30;;;;;;;;;;5031537;28;20227;-75
2022/12/05 01:25:54;;;;;;;0.30;0.30;;;;;;;;;;5033717;28;20633;-74
2022/12/05 01:28:21;;;;;;;0.40;0.40;;;;;;;;;;5034584;28;20198;-77
2022/12/05 01:30:50;;;;;;;0.38;0.38;;;;;;;;;;5032366;28;20717;-74
2022/12/05 01:33:19;;;;;;;0.37;0.37;;;;;;;;;;5052904;28;20252;-72
2022/12/05 01:35:46;;;;;;;0.40;0.40;;;;;;;;;;5033606;28;20629;-76
2022/12/05 01:38:13;;;;;;;0.30;0.30;;;;;;;;;;5028230;28;20665;-74
2022/12/05 01:40:41;;;;;;;0.30;0.30;;;;;;;;;;5033918;28;20219;-74
2022/12/05 01:43:14;;;;;;;0.30;0.30;;;;;;;;;;5051442;28;20250;-75
2022/12/05 01:45:42;;;;;;;0.30;0.30;;;;;;;;;;5031584;28;20648;-74
2022/12/05 01:48:11;;;;;;;0.30;0.30;;;;;;;;;;5033761;28;20202;-73
2022/12/05 01:50:40;;;;;;;0.38;0.38;;;;;;;;;;5037999;28;20616;-74
2022/12/05 01:53:07;;;;;;;0.30;0.30;;;;;;;;;;5039650;28;20215;-76
2022/12/05 01:55:36;;;;;;;0.30;0.30;;;;;;;;;;5039267;28;20645;-75
2022/12/05 01:58:04;;;;;;;0.40;0.40;;;;;;;;;;5036716;28;20632;-75
2022/12/05 02:00:31;;;;;;;0.30;0.30;;;;;;;;;;5035785;28;20664;-75
2022/12/05 02:02:59;;;;;;;0.40;0.40;;;;;;;;;;5037391;28;20669;-76
2022/12/05 02:05:29;;;;;;;0.40;0.40;;;;;;;;;;5032843;28;20636;-74
2022/12/05 02:07:58;;;;;;;0.50;0.50;;;;;;;;;;5039349;28;20628;-74
2022/12/05 02:10:26;;;;;;;0.30;0.30;;;;;;;;;;5035769;28;20628;-74
2022/12/05 02:12:53;;;;;;;0.30;0.30;;;;;;;;;;5036576;28;20705;-77
2022/12/05 02:15:28;;;;;;;0.30;0.30;;;;;;;;;;5036195;28;20207;-74
2022/12/05 02:18:00;;;;;;;0.30;0.30;;;;;;;;;;5037775;28;20238;-74
2022/12/05 02:20:35;;;;;;;0.40;0.40;;;;;;;;;;5040052;28;20679;-74
2022/12/05 02:23:25;;;;;;;0.20;0.20;;;;;;;;;;5034969;28;20754;-75
2022/12/05 02:26:00;;;;;;;0.30;0.30;;;;;;;;;;5036495;28;20290;-74
2022/12/05 02:28:45;;;;;;;0.30;0.30;;;;;;;;;;5038663;28;20648;-74
2022/12/05 02:31:16;;;;;;;0.40;0.40;;;;;;;;;;5031040;28;20649;-74
2022/12/05 02:33:46;;;;;;;0.20;0.20;;;;;;;;;;5039187;28;20659;-72
2022/12/05 02:36:18;;;;;;;0.20;0.20;;;;;;;;;;5034038;28;20636;-77
2022/12/05 02:38:51;;;;;;;0.30;0.30;;;;;;;;;;5037837;28;20625;-72
2022/12/05 02:41:23;;;;;;;0.20;0.20;;;;;;;;;;5035604;28;20661;-73
2022/12/05 02:43:53;;;;;;;0.20;0.20;;;;;;;;;;5037823;28;20641;-73
2022/12/05 02:46:24;;;;;;;0.20;0.20;;;;;;;;;;5034119;28;20633;-73
2022/12/05 02:48:53;;;;;;;0.10;0.10;;;;;;;;;;5039300;28;20199;-76
2022/12/05 02:51:22;;;;;;;0.10;0.10;;;;;;;;;;5034383;28;20621;-74
2022/12/05 02:53:50;;;;;;;0.10;0.10;;;;;;;;;;5035583;28;20234;-74
2022/12/05 02:56:18;;;;;;;0.10;0.10;;;;;;;;;;5034134;28;20207;-73
2022/12/05 02:58:49;;;;;;;0.10;0.10;;;;;;;;;;5035098;28;20207;-74
2022/12/05 03:01:16;;;;;;;0.10;0.10;;;;;;;;;;5050574;28;20218;-74
2022/12/05 03:03:45;;;;;;;0.10;0.10;;;;;;;;;;5052562;28;20197;-73
2022/12/05 03:06:14;;;;;;;0.10;0.10;;;;;;;;;;5035235;28;20208;-73
2022/12/05 03:08:43;;;;;;;0.20;0.20;;;;;;;;;;5035769;28;20198;-75
2022/12/05 03:11:11;;;;;;;0.10;0.10;;;;;;;;;;5032256;28;20194;-75
2022/12/05 03:13:41;;;;;;;0.10;0.10;;;;;;;;;;5019478;28;20238;-73
2022/12/05 03:16:13;;;;;;;0.10;0.10;;;;;;;;;;5036226;28;20226;-73
2022/12/05 03:18:42;;;;;;;0.10;0.10;;;;;;;;;;5036555;28;20618;-74
2022/12/05 03:21:17;;;;;;;0.17;0.17;;;;;;;;;;5034964;28;21253;-73
2022/12/05 03:23:46;;;;;;;0.10;0.10;;;;;;;;;;5035730;28;20307;-73
2022/12/05 03:26:19;;;;;;;0.10;0.10;;;;;;;;;;5034444;28;20706;-73
2022/12/05 03:28:55;;;;;;;0.17;0.17;;;;;;;;;;5052056;28;20198;-73
2022/12/05 03:31:26;;;;;;;0.10;0.10;;;;;;;;;;5042061;28;20195;-75
2022/12/05 03:33:57;;;;;;;0.20;0.20;;;;;;;;;;5038972;28;20648;-74
2022/12/05 03:36:29;;;;;;;0.10;0.10;;;;;;;;;;5034049;28;20632;-73
2022/12/05 03:38:58;;;;;;;0.10;0.10;;;;;;;;;;5035058;28;20628;-71
2022/12/05 03:41:26;;;;;;;0.10;0.10;;;;;;;;;;5033631;28;20230;-74
2022/12/05 03:43:56;;;;;;;0.10;0.10;;;;;;;;;;5050254;28;20609;-72
2022/12/05 03:46:26;;;;;;;0.10;0.10;;;;;;;;;;5036273;28;21012;-74
2022/12/05 03:48:58;;;;;;;0.10;0.10;;;;;;;;;;5048982;28;20676;-73
2022/12/05 03:51:28;;;;;;;0.10;0.10;;;;;;;;;;5032360;28;20207;-73
2022/12/05 03:53:58;;;;;;;0.10;0.10;;;;;;;;;;5034803;28;20687;-73
2022/12/05 03:56:28;;;;;;;0.10;0.10;;;;;;;;;;5035971;28;20647;-74
2022/12/05 03:58:57;;;;;;;0.10;0.10;;;;;;;;;;5033396;28;20636;-73
2022/12/05 04:01:26;;;;;;;0.10;0.10;;;;;;;;;;5039758;28;20649;-73
2022/12/05 04:03:55;;;;;;;0.10;0.10;;;;;;;;;;5032439;28;20637;-73
2022/12/05 04:06:26;;;;;;;0.10;0.10;;;;;;;;;;5030197;28;20218;-72
2022/12/05 04:08:57;;;;;;;0.10;0.10;;;;;;;;;;5032740;28;20669;-73
2022/12/05 04:11:25;;;;;;;0.10;0.10;;;;;;;;;;5034900;28;20617;-73
2022/12/05 04:13:55;;;;;;;0.10;0.10;;;;;;;;;;5034315;28;20617;-73
2022/12/05 04:19:12;;;;;;;0.10;0.10;;;;;;;;;;5034233;28;20608;-73
2022/12/05 04:21:40;;;;;;;0.10;0.10;;;;;;;;;;5032850;28;20755;-73
2022/12/05 04:27:02;;;;;;;0.10;0.10;;;;;;;;;;5034560;28;20720;-73
2022/12/05 04:29:32;;;;;;;0.10;0.10;;;;;;;;;;5030769;28;20652;-73
2022/12/05 04:32:04;;;;;;;0.10;0.10;;;;;;;;;;5051278;28;20640;-73
2022/12/05 04:34:32;;;;;;;0.13;0.13;;;;;;;;;;5051878;28;20613;-73
2022/12/05 04:37:02;;;;;;;0.10;0.10;;;;;;;;;;5034462;28;20636;-73
2022/12/05 04:39:34;;;;;;;0.10;0.10;;;;;;;;;;5049044;28;20198;-73
2022/12/05 04:42:03;;;;;;;0.10;0.10;;;;;;;;;;5041599;28;20666;-73
2022/12/05 04:44:33;;;;;;;0.10;0.10;;;;;;;;;;5034966;28;20640;-74
2022/12/05 04:47:02;;;;;;;0.10;0.10;;;;;;;;;;5034883;28;20638;-73
2022/12/05 04:49:30;;;;;;;0.10;0.10;;;;;;;;;;5031865;28;20630;-73
2022/12/05 04:52:00;;;;;;;0.10;0.10;;;;;;;;;;5037808;28;20646;-73
2022/12/05 04:54:29;;;;;;;0.10;0.10;;;;;;;;;;5032020;28;20624;-74
2022/12/05 04:57:01;;;;;;;0.10;0.10;;;;;;;;;;5035006;28;20638;-73
2022/12/05 04:59:28;;;;;;;0.10;0.10;;;;;;;;;;5034009;28;20649;-73
2022/12/05 05:01:57;;;;;;;0.10;0.10;;;;;;;;;;5034073;28;20661;-73
2022/12/05 05:04:27;;;;;;;0.10;0.10;;;;;;;;;;5036690;28;20717;-73
2022/12/05 05:06:55;;;;;;;0.10;0.10;;;;;;;;;;5034682;28;20646;-74
2022/12/05 05:09:22;;;;;;;0.10;0.10;;;;;;;;;;5037437;28;20629;-75
2022/12/05 05:11:50;;;;;;;0.10;0.10;;;;;;;;;;5035883;28;20752;-72
2022/12/05 05:14:19;;;;;;;0.10;0.10;;;;;;;;;;5035422;28;20195;-72
2022/12/05 05:16:47;;;;;;;0.10;0.10;;;;;;;;;;5036528;28;20748;-73
2022/12/05 05:19:14;;;;;;;0.10;0.10;;;;;;;;;;5032754;28;20633;-72
2022/12/05 05:21:43;;;;;;;0.10;0.10;;;;;;;;;;5032882;28;20775;-73
2022/12/05 05:24:11;;;;;;;0.10;0.10;;;;;;;;;;5034890;28;20203;-73
2022/12/05 05:26:39;;;;;;;0.20;0.20;;;;;;;;;;5036073;28;20663;-74
2022/12/05 05:29:06;;;;;;;0.10;0.10;;;;;;;;;;5042293;28;20630;-73
2022/12/05 05:31:36;;;;;;;0.10;0.10;;;;;;;;;;5036340;28;21274;-71
2022/12/05 05:34:03;;;;;;;0.10;0.10;;;;;;;;;;5037352;28;21016;-70
2022/12/05 05:36:30;;;;;;;0.10;0.10;;;;;;;;;;5039253;28;20199;-72
2022/12/05 05:38:58;;;;;;;0.10;0.10;;;;;;;;;;5038168;28;20626;-72
2022/12/05 05:41:26;;;;;;;0.13;0.13;;;;;;;;;;5035942;28;20226;-72
2022/12/05 05:43:54;;;;;;;0.10;0.10;;;;;;;;;;5053488;28;20658;-73
2022/12/05 05:46:23;;;;;;;0.10;0.10;;;;;;;;;;5054578;28;20635;-74
2022/12/05 05:48:52;;;;;;;0.10;0.10;;;;;;;;;;5044251;28;20626;-72
2022/12/05 05:51:20;;;;;;;0.10;0.10;;;;;;;;;;5036011;28;20195;-72
2022/12/05 05:53:48;;;;;;;0.10;0.10;;;;;;;;;;5034625;28;20636;-72
2022/12/05 05:56:17;;;;;;;0.10;0.10;;;;;;;;;;5039349;28;20650;-72
2022/12/05 05:58:44;;;;;;;0.10;0.10;;;;;;;;;;5034136;28;20638;-72
2022/12/05 06:01:13;;;;;;;0.10;0.10;;;;;;;;;;5039936;28;20687;-72
2022/12/05 06:03:41;;;;;;;0.10;0.10;;;;;;;;;;5034445;28;20644;-72
2022/12/05 06:06:11;;;;;;;0.10;0.10;;;;;;;;;;5042651;28;20627;-72
2022/12/05 06:08:38;;;;;;;0.10;0.10;;;;;;;;;;5040623;28;20630;-74
2022/12/05 06:11:06;;;;;;;0.10;0.10;;;;;;;;;;5035365;28;20618;-74
2022/12/05 06:13:34;;;;;;;0.10;0.10;;;;;;;;;;5031242;28;20621;-73
2022/12/05 06:16:01;;;;;;;0.10;0.10;;;;;;;;;;5035869;28;20643;-72
2022/12/05 06:18:29;;;;;;;0.10;0.10;;;;;;;;;;5036026;28;20647;-71
2022/12/05 06:20:57;;;;;;;0.10;0.10;;;;;;;;;;5034201;28;20704;-71
2022/12/05 06:23:26;;;;;;;0.10;0.10;;;;;;;;;;5033760;28;20667;-74
2022/12/05 06:25:55;;;;;;;0.10;0.10;;;;;;;;;;5037773;28;20629;-71
2022/12/05 06:28:23;;;;;;;0.10;0.10;;;;;;;;;;5050698;28;20617;-72
2022/12/05 06:30:50;;;;;;;0.10;0.10;;;;;;;;;;5035761;28;20715;-74
2022/12/05 06:33:17;;;;;;;0.10;0.10;;;;;;;;;;5035612;28;20669;-72
2022/12/05 06:35:45;;;;;;;0.10;0.10;;;;;;;;;;5034266;28;20628;-72
2022/12/05 06:38:12;;;;;;;0.10;0.10;;;;;;;;;;5032485;28;20620;-71
2022/12/05 06:40:42;;;;;;;0.10;0.10;;;;;;;;;;5035037;28;20612;-74
2022/12/05 06:43:09;;;;;;;0.10;0.10;;;;;;;;;;5033568;28;20681;-71
2022/12/05 06:45:38;;;;;;;0.10;0.10;;;;;;;;;;5037796;28;20624;-72
2022/12/05 06:48:05;;;;;;;0.10;0.10;;;;;;;;;;5035604;28;20635;-73
2022/12/05 06:50:32;;;;;;;0.10;0.10;;;;;;;;;;5032391;28;20620;-72
2022/12/05 06:53:00;;;;;;;0.10;0.10;;;;;;;;;;5037026;28;20667;-75
2022/12/05 06:55:27;;;;;;;0.10;0.10;;;;;;;;;;5035233;28;20712;-72
2022/12/05 06:57:56;;;;;;;0.10;0.10;;;;;;;;;;5037299;28;20636;-72
2022/12/05 07:03:11;;;;;;;0.10;0.10;;;;;;;;;;5033197;28;20669;-73
2022/12/05 07:05:38;;;;;;;0.10;0.10;;;;;;;;;;5038585;28;20632;-72
2022/12/05 07:08:05;;;;;;;0.10;0.10;;;;;;;;;;5036139;28;20648;-75
2022/12/05 07:10:33;;;;;;;0.10;0.10;;;;;;;;;;5035194;28;20622;-75
2022/12/05 07:13:01;;;;;;;0.13;0.13;;;;;;;;;;5034748;28;20658;-72
2022/12/05 07:15:29;;;;;;;0.10;0.10;;;;;;;;;;5031181;28;20637;-72
2022/12/05 07:18:05;;;;;;;0.10;0.10;;;;;;;;;;5035512;28;20636;-71
2022/12/05 07:20:32;;;;;;;0.10;0.10;;;;;;;;;;5051255;28;20613;-73
2022/12/05 07:22:59;;;;;;;0.10;0.10;;;;;;;;;;5038903;28;20677;-76
2022/12/05 07:25:26;;;;;;;0.10;0.10;;;;;;;;;;5056513;28;20617;-74
2022/12/05 07:27:53;;;;;;;0.10;0.10;;;;;;;;;;5033783;28;20684;-72
2022/12/05 07:30:22;;;;;;;0.10;0.10;;;;;;;;;;5037685;28;20626;-72
2022/12/05 07:32:49;;;;;;;0.10;0.10;;;;;;;;;;5049380;28;20658;-75
2022/12/05 07:35:17;;;;;;;0.10;0.10;;;;;;;;;;5041092;28;20648;-75
2022/12/05 07:37:44;;;;;;;0.10;0.10;;;;;;;;;;5034473;28;20636;-74
2022/12/05 07:40:12;;;;;;;0.10;0.10;;;;;;;;;;5035168;28;20640;-75
2022/12/05 07:42:39;;;;;;;0.10;0.10;;;;;;;;;;5034464;28;20665;-75
2022/12/05 07:45:07;;;;;;;0.10;0.10;;;;;;;;;;5034038;28;20612;-73
2022/12/05 07:47:36;;;;;;;0.10;0.10;;;;;;;;;;5041309;28;20628;-79
2022/12/05 07:50:03;;;;;;;0.10;0.10;;;;;;;;;;5034671;28;20634;-73
2022/12/05 07:52:31;;;;;;;0.10;0.10;;;;;;;;;;5036610;28;20644;-76
2022/12/05 07:54:58;;;;;;;0.10;0.10;;;;;;;;;;5037464;28;20655;-73
2022/12/05 07:57:25;;;;;;;0.10;0.10;;;;;;;;;;5033168;28;20624;-73
2022/12/05 07:59:53;;;;;;;0.10;0.10;;;;;;;;;;5037519;28;20628;-76
2022/12/05 08:02:21;;;;;;;0.10;0.10;;;;;;;;;;5033410;28;20692;-74
2022/12/05 08:04:50;;;;;;;0.10;0.10;;;;;;;;;;5035042;28;20626;-72
2022/12/05 08:07:17;;;;;;;0.10;0.10;;;;;;;;;;5035305;28;21210;-76
2022/12/05 08:09:45;;;;;;;0.10;0.10;;;;;;;;;;5034248;28;20630;-77
2022/12/05 08:12:12;;;;;;;0.10;0.10;;;;;;;;;;5035096;28;20680;-72
2022/12/05 08:14:39;;;;;;;0.10;0.10;;;;;;;;;;5034161;28;20646;-71
2022/12/05 08:17:07;;;;;;;0.10;0.10;;;;;;;;;;5036971;28;20647;-72
2022/12/05 08:19:34;;;;;;;0.10;0.10;;;;;;;;;;5028483;28;20627;-71
2022/12/05 08:22:02;;;;;;;0.10;0.10;;;;;;;;;;5031228;28;20772;-74
2022/12/05 08:24:30;;;;;;;0.10;0.10;;;;;;;;;;5030029;28;20630;-71
2022/12/05 08:26:57;;;;;;;0.10;0.10;;;;;;;;;;5033826;28;20629;-71
2022/12/05 08:29:24;;;;;;;0.10;0.10;;;;;;;;;;5034385;28;20626;-70
2022/12/05 08:31:52;;;;;;;0.10;0.10;;;;;;;;;;5030437;28;20656;-72
2022/12/05 08:34:20;;;;;;;0.10;0.10;;;;;;;;;;5031267;28;20622;-75
2022/12/05 08:36:48;;;;;;;0.10;0.10;;;;;;;;;;5032450;28;20625;-71
2022/12/05 08:39:18;;;;;;;0.10;0.10;;;;;;;;;;5033095;28;20662;-71
2022/12/05 08:41:46;;;;;;;0.10;0.10;;;;;;;;;;5032279;28;20653;-72
2022/12/05 08:44:15;;;;;;;0.10;0.10;;;;;;;;;;5031120;28;20625;-73
2022/12/05 08:46:43;;;;;;;0.10;0.10;;;;;;;;;;5028279;28;20621;-72
2022/12/05 08:49:11;;;;;;;0.10;0.10;;;;;;;;;;5031028;28;20628;-75
2022/12/05 08:51:38;;;;;;;0.10;0.10;;;;;;;;;;5033833;28;20648;-72
2022/12/05 08:54:06;;;;;;;0.10;0.10;;;;;;;;;;5049820;28;21206;-73
2022/12/05 08:56:34;;;;;;;0.10;0.10;;;;;;;;;;5029639;28;20630;-72
2022/12/05 08:59:02;;;;;;;0.10;0.10;;;;;;;;;;5051859;28;20608;-74
2022/12/05 09:01:30;;;;;;;0.10;0.10;;;;;;;;;;5052954;28;20659;-77
2022/12/05 09:03:59;;;;;;;0.10;0.10;;;;;;;;;;5051803;28;20678;-74
2022/12/05 09:06:27;;;;;;;0.10;0.10;;;;;;;;;;5055335;28;20714;-74
2022/12/05 09:08:55;;;;;;;0.10;0.10;;;;;;;;;;5055199;28;20612;-74
2022/12/05 09:11:23;;;;;;;0.10;0.10;;;;;;;;;;5056955;28;20616;-73
2022/12/05 09:13:53;;;;;;;0.10;0.10;;;;;;;;;;5053828;28;20663;-72
2022/12/05 09:16:21;;;;;;;0.10;0.10;;;;;;;;;;5034163;28;20637;-76
2022/12/05 09:18:49;;;;;;;0.10;0.10;;;;;;;;;;5032008;28;20645;-74
2022/12/05 09:21:17;;;;;;;0.10;0.10;;;;;;;;;;5041710;28;20625;-73
2022/12/05 09:23:44;;;;;;;0.10;0.10;;;;;;;;;;5033156;28;20689;-71
2022/12/05 09:26:12;;;;;;;0.10;0.10;;;;;;;;;;5032797;28;20633;-72
2022/12/05 09:28:40;;;;;;;0.10;0.10;;;;;;;;;;5038839;28;20678;-74
2022/12/05 09:31:11;;;;;;;0.10;0.10;;;;;;;;;;5035250;28;20631;-71
2022/12/05 09:33:39;;;;;;;0.10;0.10;;;;;;;;;;5037031;28;20632;-76
2022/12/05 09:36:06;;;;;;;0.10;0.10;;;;;;;;;;5034002;28;20634;-71
2022/12/05 09:38:35;;;;;;;0.10;0.10;;;;;;;;;;5036355;28;20683;-73
2022/12/05 09:41:07;;;;;;;0.10;0.10;;;;;;;;;;5039010;28;20731;-72
2022/12/05 09:43:38;;;;;;;0.10;0.10;;;;;;;;;;5037003;28;20657;-72
2022/12/05 09:46:11;;;;;;;0.10;0.10;;;;;;;;;;5037414;28;20624;-73
2022/12/05 09:48:40;;;;;;;0.10;0.10;;;;;;;;;;5038057;28;20629;-75
2022/12/05 09:51:10;;;;;;;0.10;0.10;;;;;;;;;;5039606;28;20617;-73
2022/12/05 09:53:41;;;;;;;0.10;0.10;;;;;;;;;;5041160;28;20621;-74
2022/12/05 09:56:13;;;;;;;0.10;0.10;;;;;;;;;;5035650;28;20617;-75
2022/12/05 09:58:42;;;;;;;0.10;0.10;;;;;;;;;;5035490;28;20632;-72
2022/12/05 10:01:20;;;;;;;0.10;0.10;;;;;;;;;;5035853;28;20636;-74
2022/12/05 10:03:55;;;;;;;0.10;0.10;;;;;;;;;;5037048;28;20684;-73
2022/12/05 10:06:24;;;;;;;0.10;0.10;;;;;;;;;;5042720;28;20630;-74
2022/12/05 10:09:07;;;;;;;0.10;0.10;;;;;;;;;;5035312;28;20637;-75
2022/12/05 10:11:36;;;;;;;0.13;0.13;;;;;;;;;;5035086;28;20652;-75
2022/12/05 10:14:08;;;;;;;0.10;0.10;;;;;;;;;;5041596;28;21110;-74
2022/12/05 10:16:37;;;;;;;0.10;0.10;;;;;;;;;;5036057;28;20633;-71
2022/12/05 10:19:11;;;;;;;0.10;0.10;;;;;;;;;;5035482;28;20621;-69
2022/12/05 10:21:50;;;;;;;0.10;0.10;;;;;;;;;;5035250;28;20656;-71
2022/12/05 10:24:19;;;;;;;0.10;0.10;;;;;;;;;;5037291;28;20660;-76
2022/12/05 10:26:47;;;;;;;0.10;0.10;;;;;;;;;;5036835;28;21023;-72
2022/12/05 10:29:22;;;;;;;0.17;0.17;;;;;;;;;;5033739;28;20633;-73
2022/12/05 10:31:55;;;;;;;0.10;0.10;;;;;;;;;;5037527;28;20648;-71
2022/12/05 10:34:29;;;;;;;0.10;0.10;;;;;;;;;;5036508;28;20624;-72
2022/12/05 10:37:03;;;;;;;0.10;0.10;;;;;;;;;;5043047;28;20625;-73
2022/12/05 10:39:31;;;;;;;0.10;0.10;;;;;;;;;;5038964;28;20648;-73
2022/12/05 10:41:58;;;;;;;0.10;0.10;;;;;;;;;;5036218;28;20649;-74
2022/12/05 10:44:25;;;;;;;0.10;0.10;;;;;;;;;;5042412;28;20665;-73
2022/12/05 10:46:53;;;;;;;0.10;0.10;;;;;;;;;;5036208;28;20645;-74
2022/12/05 10:49:21;;;;;;;0.10;0.10;;;;;;;;;;5047229;28;20660;-73
2022/12/05 10:51:51;;;;;;;0.10;0.10;;;;;;;;;;5039176;28;20660;-74
2022/12/05 10:54:21;;;;;;;0.10;0.10;;;;;;;;;;5038935;28;20653;-72
2022/12/05 10:56:50;;;;;;;0.10;0.10;;;;;;;;;;5038099;28;20648;-71
2022/12/05 10:59:19;;;;;;;0.10;0.10;;;;;;;;;;5038687;28;20640;-73
2022/12/05 11:01:48;;;;;;;0.13;0.13;;;;;;;;;;5032603;28;20763;-74
2022/12/05 11:04:34;;;;;;;0.10;0.10;;;;;;;;;;5045105;28;21241;-73
2022/12/05 11:07:05;;;;;;;0.10;0.10;;;;;;;;;;5034089;28;20636;-73
2022/12/05 11:09:33;;;;;;;0.10;0.10;;;;;;;;;;5052072;28;21035;-73
2022/12/05 11:12:06;;;;;;;0.10;0.10;;;;;;;;;;5039480;28;20668;-73
2022/12/05 11:14:35;;;;;;;0.10;0.10;;;;;;;;;;5038520;28;20620;-74
2022/12/05 11:17:03;;;;;;;0.10;0.10;;;;;;;;;;5034203;28;20637;-74
2022/12/05 11:19:37;;;;;;;0.10;0.10;;;;;;;;;;5036584;28;20648;-71
2022/12/05 11:22:10;;;;;;;0.13;0.13;;;;;;;;;;5037740;28;20710;-73
2022/12/05 11:24:41;;;;;;;0.10;0.10;;;;;;;;;;5039581;28;20659;-71
2022/12/05 11:27:23;;;;;;;0.10;0.10;;;;;;;;;;5037040;28;20629;-70
2022/12/05 11:29:55;;;;;;;0.10;0.10;;;;;;;;;;5039296;28;20724;-76
2022/12/05 11:32:24;;;;;;;0.10;0.10;;;;;;;;;;5038314;28;20689;-72
2022/12/05 11:34:53;;;;;;;0.10;0.10;;;;;;;;;;5043791;28;20628;-72
2022/12/05 11:37:25;;;;;;;0.10;0.10;;;;;;;;;;5038030;28;20747;-71
2022/12/05 11:39:53;;;;;;;0.10;0.10;;;;;;;;;;5044307;28;20629;-74
2022/12/05 11:42:29;;;;;;;0.10;0.10;;;;;;;;;;5035994;28;20664;-71
2022/12/05 11:45:15;;;;;;;0.10;0.10;;;;;;;;;;5035713;28;20647;-71
2022/12/05 11:47:51;;;;;;;0.10;0.10;;;;;;;;;;5028085;28;20678;-74
2022/12/05 11:50:28;;;;;;;0.10;0.10;;;;;;;;;;5034939;28;20633;-73
2022/12/05 11:53:05;;;;;;;0.10;0.10;;;;;;;;;;5036064;28;20780;-79
2022/12/05 11:55:35;;;;;;;0.10;0.10;;;;;;;;;;5029772;28;20707;-71
2022/12/05 11:58:08;;;;;;;0.10;0.10;;;;;;;;;;5029993;28;20609;-74
2022/12/05 12:00:38;;;;;;;0.10;0.10;;;;;;;;;;5041856;28;20641;-72
2022/12/05 12:03:18;;;;;;;0.10;0.10;;;;;;;;;;5036057;28;20702;-70
2022/12/05 12:05:50;;;;;;;0.10;0.10;;;;;;;;;;5036075;28;20671;-72
2022/12/05 12:08:23;;;;;;;0.10;0.10;;;;;;;;;;5042937;28;20648;-72
2022/12/05 12:10:56;;;;;;;0.10;0.10;;;;;;;;;;5035808;28;20644;-73
2022/12/05 12:13:29;;;;;;;0.10;0.10;;;;;;;;;;5042167;28;20668;-70
2022/12/05 12:16:00;;;;;;;0.10;0.10;;;;;;;;;;5034432;28;20617;-70
2022/12/05 12:18:48;;;;;;;0.10;0.10;;;;;;;;;;5034728;28;20631;-76
2022/12/05 12:21:20;;;;;;;0.10;0.10;;;;;;;;;;5031471;28;20661;-73
2022/12/05 12:23:54;;;;;;;0.10;0.10;;;;;;;;;;5036763;28;21046;-72
2022/12/05 12:26:26;;;;;;;0.10;0.10;;;;;;;;;;5038822;28;20641;-71
2022/12/05 12:28:57;;;;;;;0.10;0.10;;;;;;;;;;5034950;28;20662;-68
2022/12/05 12:31:49;;;;;;;0.10;0.10;;;;;;;;;;5030898;28;20628;-73
2022/12/05 12:34:27;;;;;;;0.10;0.10;;;;;;;;;;5039174;28;20632;-71
2022/12/05 12:36:56;;;;;;;0.10;0.10;;;;;;;;;;5032998;28;20629;-72
2022/12/05 12:39:31;;;;;;;0.10;0.10;;;;;;;;;;5050393;28;20640;-73
2022/12/05 12:42:04;;;;;;;0.10;0.10;;;;;;;;;;5048627;28;20649;-72
2022/12/05 12:44:44;;;;;;;0.20;0.20;;;;;;;;;;5030931;28;20646;-71
2022/12/05 12:47:15;;;;;;;0.10;0.10;;;;;;;;;;5032135;28;20732;-75
2022/12/05 12:49:51;;;;;;;0.10;0.10;;;;;;;;;;5037434;28;20617;-73
2022/12/05 12:52:20;;;;;;;0.20;0.20;;;;;;;;;;5033728;28;20736;-75
2022/12/05 12:54:55;;;;;;;0.20;0.20;;;;;;;;;;5035923;28;20636;-74
2022/12/05 12:57:26;;;;;;;0.10;0.10;;;;;;;;;;5035527;28;20616;-73
2022/12/05 13:00:01;;;;;;;0.10;0.10;;;;;;;;;;5034470;28;20636;-79
2022/12/05 13:02:33;;;;;;;0.20;0.20;;;;;;;;;;5034064;28;20668;-74
2022/12/05 13:05:03;;;;;;;0.10;0.10;;;;;;;;;;5031798;28;20763;-75
2022/12/05 13:07:32;;;;;;;0.23;0.23;;;;;;;;;;5034210;28;20656;-72
2022/12/05 13:10:05;;;;;;;0.20;0.20;;;;;;;;;;5042280;28;20628;-71
2022/12/05 13:12:35;;;;;;;0.10;0.10;;;;;;;;;;5037422;28;20669;-71
2022/12/05 13:15:06;;;;;;;0.10;0.10;;;;;;;;;;5033835;28;20655;-76
2022/12/05 13:17:34;;;;;;;0.20;0.20;;;;;;;;;;5034639;28;20647;-76
2022/12/05 13:20:01;;;;;;;0.20;0.20;;;;;;;;;;5032980;28;20625;-74
2022/12/05 13:22:29;;;;;;;0.10;0.10;;;;;;;;;;5034609;28;20671;-72
2022/12/05 13:24:56;;;;;;;0.10;0.10;;;;;;;;;;5030849;28;20653;-71
2022/12/05 13:27:26;;;;;;;0.10;0.10;;;;;;;;;;5032341;28;20652;-72
2022/12/05 13:29:54;;;;;;;0.10;0.10;;;;;;;;;;5040928;28;20690;-71
2022/12/05 13:32:27;;;;;;;0.10;0.10;;;;;;;;;;5055111;28;20633;-72
2022/12/05 13:34:54;;;;;;;0.10;0.10;;;;;;;;;;5031579;28;20617;-70
2022/12/05 13:43:08;;;;;;;0.10;0.10;;;;;;;;;;5034196;28;20645;-72
2022/12/05 13:45:36;;;;;;;0.10;0.10;;;;;;;;;;5053530;28;20608;-70
2022/12/05 13:48:15;;;;;;;0.10;0.10;;;;;;;;;;5034248;28;20650;-71
2022/12/05 13:50:45;;;;;;;0.20;0.20;;;;;;;;;;5050973;28;20624;-72
2022/12/05 13:53:22;;;;;;;0.10;0.10;;;;;;;;;;5033955;28;20657;-70
2022/12/05 13:55:56;;;;;;;0.10;0.10;;;;;;;;;;5034617;28;20628;-72
2022/12/05 13:58:44;;;;;;;0.10;0.10;;;;;;;;;;5052606;28;20608;-72
2022/12/05 14:01:32;;;;;;;0.10;0.10;;;;;;;;;;5036948;28;20640;-73
2022/12/05 14:04:00;;;;;;;0.10;0.10;;;;;;;;;;5053507;28;20658;-74
2022/12/05 14:06:42;;;;;;;0.10;0.10;;;;;;;;;;5054843;28;20613;-74
2022/12/05 14:09:25;;;;;;;0.10;0.10;;;;;;;;;;5051740;28;20621;-72
2022/12/05 14:12:09;;;;;;;0.00;0.00;;;;;;;;;;5051101;28;20656;-74
2022/12/05 14:15:01;;;;;;;0.10;0.10;;;;;;;;;;5055580;28;20612;-75
2022/12/05 14:17:30;;;;;;;0.10;0.10;;;;;;;;;;5057989;28;20633;-72
2022/12/05 14:20:03;;;;;;;0.10;0.10;;;;;;;;;;5037199;28;20621;-71
2022/12/05 14:22:49;;;;;;;0.10;0.10;;;;;;;;;;5053418;28;20696;-75
2022/12/05 14:25:22;;;;;;;0.10;0.10;;;;;;;;;;5032612;28;20660;-74
2022/12/05 14:27:57;;;;;;;0.10;0.10;;;;;;;;;;5036201;28;20629;-70
2022/12/05 14:30:29;;;;;;;0.10;0.10;;;;;;;;;;5034798;28;20755;-73
2022/12/05 14:33:00;;;;;;;0.10;0.10;;;;;;;;;;5055791;28;20645;-75
2022/12/05 14:35:29;;;;;;;0.10;0.10;;;;;;;;;;5033648;28;20625;-73
2022/12/05 14:37:59;;;;;;;0.10;0.10;;;;;;;;;;5054067;28;20651;-73
2022/12/05 14:40:30;;;;;;;0.10;0.10;;;;;;;;;;5052593;28;20671;-72
2022/12/05 14:42:58;;;;;;;0.10;0.10;;;;;;;;;;5045111;28;20789;-72
2022/12/05 14:45:29;;;;;;;0.10;0.10;;;;;;;;;;5035677;28;20660;-72
2022/12/05 14:47:57;;;;;;;0.10;0.10;;;;;;;;;;5034747;28;20644;-74
2022/12/05 14:50:36;;;;;;;0.10;0.10;;;;;;;;;;5033148;28;20625;-72
2022/12/05 14:53:19;;;;;;;0.10;0.10;;;;;;;;;;5053293;28;20646;-70
2022/12/05 14:55:47;;;;;;;0.00;0.00;;;;;;;;;;5030914;28;20627;-71
2022/12/05 14:58:18;;;;;;;0.10;0.10;;;;;;;;;;5033366;28;20644;-73
2022/12/05 15:00:47;;;;;;;0.10;0.10;;;;;;;;;;5030557;28;20628;-71
2022/12/05 15:03:21;;;;;;;0.10;0.10;;;;;;;;;;5041731;28;20667;-70
2022/12/05 15:05:48;;;;;;;0.10;0.10;;;;;;;;;;5032150;28;20652;-71
2022/12/05 15:08:16;;;;;;;0.00;0.00;;;;;;;;;;5037220;28;21200;-70
2022/12/05 15:10:44;;;;;;;0.10;0.10;;;;;;;;;;5040117;28;21186;-71
2022/12/05 15:13:13;;;;;;;0.10;0.10;;;;;;;;;;5035462;28;20679;-70
2022/12/05 15:15:42;;;;;;;0.10;0.10;;;;;;;;;;5044992;28;20682;-70